Time;durP1;ratioP1;P1;durP2;ratioP2;P2;SDS_P1;SDS_P2;PMS_P1;PMS_P2;Temp;Humidity;BMP_temperature;BMP_pressure;BME280_temperature;BME280_humidity;BME280_pressure;Samples;Min_cycle;Max_cycle;Signal;HPM_P1;HPM_P2
2023/01/20 00:01:45;;;;;;;2.53;1.00;;;;;;;9.50;87.91;94138.38;5029523;28;20206;-65
2023/01/20 00:04:12;;;;;;;0.88;0.88;;;;;;;9.75;86.34;94151.63;5029845;28;20218;-66
2023/01/20 00:06:39;;;;;;;2.20;1.00;;;;;;;9.80;85.92;94156.50;5029914;28;20207;-65
2023/01/20 00:09:06;;;;;;;0.55;0.55;;;;;;;9.88;84.60;94159.53;5027623;28;20207;-66
2023/01/20 00:11:33;;;;;;;0.55;0.55;;;;;;;9.70;86.09;94112.94;5026973;28;20234;-67
2023/01/20 00:14:02;;;;;;;1.95;0.70;;;;;;;9.42;86.30;94108.28;5029461;28;20211;-67
2023/01/20 00:16:31;;;;;;;0.70;0.70;;;;;;;8.92;90.04;94051.38;5029405;28;20268;-66
2023/01/20 00:18:58;;;;;;;0.73;0.73;;;;;;;8.32;92.77;93972.91;5028188;28;20210;-63
2023/01/20 00:21:25;;;;;;;0.77;0.77;;;;;;;8.02;94.46;93929.44;5029812;28;20685;-65
2023/01/20 00:23:52;;;;;;;0.70;0.70;;;;;;;7.89;96.35;93915.66;5029140;28;20209;-66
2023/01/20 00:26:20;;;;;;;1.15;0.75;;;;;;;7.88;96.03;93926.66;5029715;28;20703;-65
2023/01/20 00:28:48;;;;;;;0.57;0.57;;;;;;;7.96;95.45;93956.69;5028134;28;20203;-67
2023/01/20 00:31:16;;;;;;;0.75;0.75;;;;;;;8.07;95.37;93957.88;5060632;22;20241;-65
2023/01/20 00:33:45;;;;;;;0.95;0.73;;;;;;;8.17;94.30;93933.84;5048275;28;20210;-66
2023/01/20 00:36:13;;;;;;;0.80;0.80;;;;;;;8.23;92.40;93915.03;5049504;28;20206;-67
2023/01/20 00:38:40;;;;;;;1.00;1.00;;;;;;;8.51;92.34;93948.44;5046502;28;20284;-66
2023/01/20 00:41:08;;;;;;;0.93;0.90;;;;;;;8.58;93.14;93953.25;5029548;28;20195;-67
2023/01/20 00:43:35;;;;;;;0.85;0.80;;;;;;;8.54;93.14;93934.81;5029447;28;20210;-67
2023/01/20 00:46:02;;;;;;;3.22;1.13;;;;;;;8.81;92.60;93936.16;5029862;28;20249;-67
2023/01/20 00:48:28;;;;;;;1.42;1.33;;;;;;;8.95;91.90;93952.44;5029772;28;20684;-67
2023/01/20 00:50:57;;;;;;;1.30;1.20;;;;;;;8.95;89.77;93942.28;5029111;28;20669;-65
2023/01/20 00:53:23;;;;;;;1.00;0.88;;;;;;;8.90;88.33;93964.50;5030159;28;20207;-65
2023/01/20 00:55:50;;;;;;;1.67;0.88;;;;;;;8.94;87.49;93959.22;5029113;28;20217;-64
2023/01/20 00:58:17;;;;;;;2.30;1.00;;;;;;;8.91;86.88;93956.00;5029404;28;20207;-65
2023/01/20 01:00:47;;;;;;;0.80;0.80;;;;;;;8.89;86.50;93956.09;5028362;28;20298;-68
2023/01/20 01:03:14;;;;;;;3.13;0.55;;;;;;;8.89;85.47;93937.53;5029266;28;20302;-68
2023/01/20 01:05:40;;;;;;;0.50;0.50;;;;;;;8.95;85.06;93922.03;5030155;28;20207;-66
2023/01/20 01:08:10;;;;;;;1.52;0.43;;;;;;;9.07;85.00;93946.81;5029745;28;20230;-67
2023/01/20 01:10:37;;;;;;;0.65;0.65;;;;;;;9.15;84.78;93934.63;5027388;28;20250;-68
2023/01/20 01:13:05;;;;;;;0.90;0.50;;;;;;;9.19;83.65;93952.13;5029621;28;20664;-66
2023/01/20 01:15:32;;;;;;;0.75;0.65;;;;;;;9.29;82.56;93922.13;5029012;28;20680;-64
2023/01/20 01:17:59;;;;;;;0.50;0.50;;;;;;;9.29;82.89;93917.06;5028822;28;20214;-68
2023/01/20 01:20:27;;;;;;;0.57;0.50;;;;;;;9.35;82.54;93916.78;5028548;28;20203;-68
2023/01/20 01:22:54;;;;;;;1.92;0.80;;;;;;;9.41;81.41;93916.47;5029417;28;20265;-66
2023/01/20 01:25:23;;;;;;;0.70;0.70;;;;;;;9.49;81.36;93928.78;5029057;28;20217;-66
2023/01/20 01:27:50;;;;;;;0.73;0.57;;;;;;;9.54;81.58;93919.25;5029763;28;20206;-66
2023/01/20 01:30:17;;;;;;;0.43;0.43;;;;;;;9.63;79.59;93910.41;5027854;28;20207;-66
2023/01/20 01:32:43;;;;;;;0.85;0.85;;;;;;;9.80;79.06;93897.69;5027795;28;20235;-66
2023/01/20 01:35:10;;;;;;;0.52;0.52;;;;;;;9.88;78.57;93903.22;5029243;28;20471;-64
2023/01/20 01:37:37;;;;;;;0.60;0.60;;;;;;;9.92;78.09;93909.78;5028411;28;20680;-65
2023/01/20 01:40:05;;;;;;;0.70;0.70;;;;;;;9.94;78.67;93913.06;5028275;28;21554;-67
2023/01/20 01:42:33;;;;;;;1.00;0.50;;;;;;;9.87;78.86;93899.88;5028929;28;20199;-67
2023/01/20 01:45:30;;;;;;;0.82;0.77;;;;;;;9.85;79.50;93916.88;5028314;28;20692;-66
2023/01/20 01:48:05;;;;;;;3.53;0.82;;;;;;;9.84;79.27;93899.19;4947497;28;20212;-66
2023/01/20 01:50:39;;;;;;;1.65;0.85;;;;;;;9.83;80.17;93915.31;5013904;28;20696;-66
2023/01/20 01:53:07;;;;;;;0.60;0.60;;;;;;;9.79;79.63;93917.19;5028380;28;20206;-67
2023/01/20 01:55:39;;;;;;;0.50;0.50;;;;;;;9.76;79.48;93921.56;5028386;28;20567;-66
2023/01/20 01:58:11;;;;;;;1.10;0.88;;;;;;;9.83;80.12;93923.75;5027397;28;20199;-67
2023/01/20 02:00:39;;;;;;;0.50;0.50;;;;;;;9.78;80.41;93925.69;5027260;28;20207;-64
2023/01/20 02:03:06;;;;;;;0.40;0.40;;;;;;;9.68;80.11;93924.47;5026933;28;20214;-66
2023/01/20 02:05:36;;;;;;;0.60;0.60;;;;;;;9.68;80.47;93928.72;5026896;28;20211;-67
2023/01/20 02:08:03;;;;;;;0.47;0.47;;;;;;;9.54;80.50;93916.72;5026445;28;20206;-65
2023/01/20 02:10:30;;;;;;;0.73;0.70;;;;;;;9.52;81.24;93903.28;5026568;28;20727;-66
2023/01/20 02:12:58;;;;;;;0.52;0.52;;;;;;;9.37;81.63;93909.91;5030802;28;20211;-66
2023/01/20 02:15:30;;;;;;;0.82;0.30;;;;;;;9.39;81.22;93904.78;5031256;28;20803;-66
2023/01/20 02:18:12;;;;;;;0.60;0.60;;;;;;;9.25;82.30;93894.44;5032025;28;20210;-66
2023/01/20 02:21:05;;;;;;;0.75;0.55;;;;;;;9.21;83.22;93888.69;5032034;28;20206;-67
2023/01/20 02:23:49;;;;;;;0.50;0.45;;;;;;;9.08;83.67;93872.44;5031616;28;20292;-64
2023/01/20 02:26:34;;;;;;;1.88;1.23;;;;;;;9.07;84.30;93909.63;5032502;28;20215;-67
2023/01/20 02:29:34;;;;;;;0.70;0.70;;;;;;;8.86;84.15;93891.16;5031121;28;20211;-65
2023/01/20 02:32:12;;;;;;;3.17;0.65;;;;;;;8.84;84.94;93895.47;5031774;28;20299;-65
2023/01/20 02:34:46;;;;;;;1.42;1.00;;;;;;;8.83;85.46;93881.16;5031128;28;20573;-66
2023/01/20 02:37:17;;;;;;;1.30;0.77;;;;;;;8.77;85.13;93873.84;5032491;28;20203;-67
2023/01/20 02:39:55;;;;;;;0.60;0.60;;;;;;;8.81;85.09;93880.41;5031611;28;20234;-67
2023/01/20 02:42:27;;;;;;;1.10;0.90;;;;;;;8.83;84.93;93858.38;5032535;28;20203;-67
2023/01/20 02:45:01;;;;;;;0.73;0.73;;;;;;;8.88;85.77;93862.41;5030181;28;20265;-67
2023/01/20 02:47:35;;;;;;;0.68;0.60;;;;;;;8.85;85.45;93856.59;5031699;28;21197;-68
2023/01/20 02:50:09;;;;;;;1.02;0.85;;;;;;;8.86;85.76;93860.78;5032204;28;20203;-65
2023/01/20 02:52:39;;;;;;;1.30;0.70;;;;;;;8.84;84.83;93859.19;5032107;28;20233;-65
2023/01/20 02:55:09;;;;;;;0.98;0.90;;;;;;;8.79;85.67;93871.25;5032008;28;20206;-67
2023/01/20 02:57:41;;;;;;;0.77;0.77;;;;;;;8.78;85.60;93850.16;5031585;28;20214;-65
2023/01/20 03:00:14;;;;;;;1.05;0.90;;;;;;;8.96;85.65;93845.13;5031389;28;20257;-66
2023/01/20 03:02:44;;;;;;;0.75;0.75;;;;;;;8.89;85.00;93843.78;5032028;28;20528;-66
2023/01/20 03:05:17;;;;;;;0.95;0.60;;;;;;;8.90;85.69;93833.59;5031757;28;20214;-65
2023/01/20 03:07:45;;;;;;;0.65;0.65;;;;;;;8.97;86.00;93834.09;5032265;28;20207;-66
2023/01/20 03:10:17;;;;;;;0.80;0.80;;;;;;;9.01;85.24;93841.50;5031341;28;20664;-66
2023/01/20 03:12:50;;;;;;;11.30;0.75;;;;;;;9.00;85.49;93854.22;5032425;28;20227;-66
2023/01/20 03:15:23;;;;;;;2.55;0.60;;;;;;;9.01;85.59;93843.19;5031482;28;20203;-67
2023/01/20 03:17:52;;;;;;;0.68;0.60;;;;;;;9.10;85.70;93845.31;5031426;28;20217;-67
2023/01/20 03:20:19;;;;;;;1.40;0.80;;;;;;;9.12;84.57;93856.19;5031169;28;20207;-65
2023/01/20 03:22:46;;;;;;;1.85;0.65;;;;;;;9.15;85.30;93848.47;5031089;28;20203;-67
2023/01/20 03:25:14;;;;;;;19.80;1.23;;;;;;;9.21;84.60;93843.06;5031192;28;20632;-67
2023/01/20 03:27:42;;;;;;;1.35;0.60;;;;;;;9.11;84.91;93854.56;5032899;28;20300;-66
2023/01/20 03:30:13;;;;;;;1.05;0.70;;;;;;;9.13;84.73;93855.31;5030651;28;20314;-67
2023/01/20 03:32:41;;;;;;;0.50;0.50;;;;;;;9.05;85.53;93847.25;5032042;28;20230;-66
2023/01/20 03:35:10;;;;;;;0.98;0.75;;;;;;;9.09;85.49;93853.81;5031290;28;20210;-66
2023/01/20 03:37:37;;;;;;;2.72;0.55;;;;;;;8.99;85.89;93850.88;5030787;28;20214;-65
2023/01/20 03:40:05;;;;;;;0.88;0.52;;;;;;;9.00;87.03;93854.22;5030842;28;20231;-67
2023/01/20 03:42:39;;;;;;;0.90;0.90;;;;;;;8.90;87.86;93858.09;5032297;28;20664;-63
2023/01/20 03:45:10;;;;;;;0.73;0.73;;;;;;;8.77;88.74;93863.72;5030760;28;20684;-64
2023/01/20 03:47:50;;;;;;;0.82;0.82;;;;;;;8.83;89.32;93860.09;5030526;28;20226;-67
2023/01/20 03:50:31;;;;;;;0.90;0.90;;;;;;;8.80;90.01;93855.16;5030802;28;20256;-66
2023/01/20 03:53:05;;;;;;;1.60;1.30;;;;;;;8.91;89.85;93840.25;5031206;28;20288;-66
2023/01/20 03:55:38;;;;;;;1.20;1.10;;;;;;;8.96;90.65;93830.75;5030989;28;20704;-66
2023/01/20 03:58:08;;;;;;;0.88;0.88;;;;;;;8.89;90.63;93828.59;5030151;28;20211;-66
2023/01/20 04:00:37;;;;;;;0.80;0.80;;;;;;;8.95;91.38;93815.59;5029446;28;20207;-68
2023/01/20 04:03:08;;;;;;;0.90;0.90;;;;;;;8.82;91.83;93818.72;5031838;28;20203;-64
2023/01/20 04:05:38;;;;;;;1.05;1.05;;;;;;;8.78;91.82;93801.22;5031341;28;20218;-67
2023/01/20 04:08:09;;;;;;;1.10;1.02;;;;;;;8.54;93.10;93785.44;5030539;28;20696;-66
2023/01/20 04:10:40;;;;;;;0.82;0.82;;;;;;;8.64;93.49;93804.41;5030380;28;20206;-67
2023/01/20 04:13:07;;;;;;;0.90;0.90;;;;;;;8.65;94.51;93805.22;5031308;28;20226;-68
2023/01/20 04:15:38;;;;;;;1.15;0.80;;;;;;;8.70;93.73;93805.81;5030814;28;20207;-64
2023/01/20 04:18:15;;;;;;;0.90;0.90;;;;;;;8.80;93.58;93802.78;5030903;28;20768;-66
2023/01/20 04:20:44;;;;;;;1.45;1.10;;;;;;;8.81;94.15;93789.22;5030300;28;20216;-66
2023/01/20 04:23:19;;;;;;;1.35;1.25;;;;;;;8.78;94.29;93789.38;5031172;28;20207;-65
2023/01/20 04:25:46;;;;;;;1.38;1.27;;;;;;;8.78;93.91;93789.38;5030838;28;20206;-67
2023/01/20 04:28:13;;;;;;;2.00;0.98;;;;;;;8.72;93.96;93771.91;5030559;28;20606;-67
2023/01/20 04:30:40;;;;;;;1.50;1.40;;;;;;;8.77;94.33;93777.59;5030926;28;20233;-67
2023/01/20 04:33:06;;;;;;;3.67;1.60;;;;;;;8.70;94.64;93767.81;5029894;28;20805;-66
2023/01/20 04:35:33;;;;;;;1.92;1.60;;;;;;;8.63;94.81;93769.84;5029722;28;20211;-68
2023/01/20 04:38:01;;;;;;;1.45;1.35;;;;;;;8.65;95.22;93785.78;5030686;28;20207;-65
2023/01/20 04:40:28;;;;;;;1.88;1.40;;;;;;;8.70;94.28;93773.69;5030527;28;20284;-66
2023/01/20 04:42:55;;;;;;;1.73;1.50;;;;;;;8.69;94.75;93771.25;5029877;28;20207;-67
2023/01/20 04:45:21;;;;;;;2.58;1.75;;;;;;;8.67;94.98;93785.69;5030308;28;20797;-66
2023/01/20 04:47:48;;;;;;;2.08;1.52;;;;;;;8.72;94.92;93789.66;5030632;28;20260;-66
2023/01/20 04:50:16;;;;;;;1.60;1.50;;;;;;;8.63;95.20;93787.56;5030154;28;20203;-67
2023/01/20 04:52:43;;;;;;;2.22;1.40;;;;;;;8.76;95.52;93796.22;5030475;28;20724;-66
2023/01/20 04:55:12;;;;;;;1.60;1.50;;;;;;;8.64;95.41;93806.94;5030406;28;20680;-67
2023/01/20 04:57:39;;;;;;;1.58;1.40;;;;;;;8.79;94.59;93796.06;5029902;28;20746;-67
2023/01/20 05:00:07;;;;;;;2.80;1.50;;;;;;;8.78;95.47;93807.09;5029670;28;20235;-67
2023/01/20 05:02:34;;;;;;;2.03;1.48;;;;;;;8.83;95.79;93817.03;5029659;28;20259;-67
2023/01/20 05:05:01;;;;;;;1.83;1.73;;;;;;;8.98;96.09;93830.66;5030151;28;20864;-67
2023/01/20 05:07:28;;;;;;;2.95;1.90;;;;;;;9.17;96.09;93841.56;5029823;28;20211;-66
2023/01/20 05:09:54;;;;;;;2.00;1.88;;;;;;;9.31;95.54;93849.34;5029623;28;20297;-67
2023/01/20 05:12:22;;;;;;;2.05;1.90;;;;;;;9.44;95.00;93836.91;5029585;28;20840;-68
2023/01/20 05:14:49;;;;;;;21.75;14.57;;;;;;;9.51;94.54;93821.31;5029828;28;21001;-66
2023/01/20 05:17:16;;;;;;;9.35;6.82;;;;;;;9.75;93.27;93813.38;5029673;28;20202;-66
2023/01/20 05:19:43;;;;;;;9.02;5.50;;;;;;;9.69;93.38;93808.59;5030007;28;20276;-67
2023/01/20 05:22:10;;;;;;;3.33;3.13;;;;;;;9.81;93.01;93820.69;5029224;28;20235;-67
2023/01/20 05:24:52;;;;;;;2.97;2.78;;;;;;;9.88;92.87;93809.34;4995785;28;20210;-67
2023/01/20 05:27:18;;;;;;;4.93;2.50;;;;;;;9.92;92.67;93825.22;5029454;28;21215;-66
2023/01/20 05:29:47;;;;;;;2.30;2.20;;;;;;;9.96;92.43;93827.53;5029382;28;21072;-66
2023/01/20 05:32:13;;;;;;;3.05;2.35;;;;;;;10.01;92.14;93834.91;5029096;28;20230;-67
2023/01/20 05:34:40;;;;;;;3.45;2.63;;;;;;;10.03;92.25;93849.16;5029175;28;20661;-67
2023/01/20 05:37:07;;;;;;;2.47;2.28;;;;;;;10.11;91.68;93856.41;5028555;28;20207;-66
2023/01/20 05:39:34;;;;;;;2.70;2.50;;;;;;;10.02;91.53;93847.53;5028292;28;20295;-66
2023/01/20 05:42:01;;;;;;;2.83;2.63;;;;;;;10.00;91.62;93844.22;5028634;28;20207;-67
2023/01/20 05:44:28;;;;;;;2.75;2.55;;;;;;;9.98;91.65;93830.81;5028738;28;20207;-67
2023/01/20 05:46:56;;;;;;;2.78;2.53;;;;;;;10.00;91.90;93829.00;5028894;28;20280;-68
2023/01/20 05:49:23;;;;;;;4.22;3.03;;;;;;;10.15;91.29;93823.13;5029149;28;20221;-66
2023/01/20 05:51:49;;;;;;;3.85;3.50;;;;;;;10.17;91.34;93802.75;5028087;28;20284;-68
2023/01/20 05:54:16;;;;;;;3.00;2.65;;;;;;;10.27;90.58;93809.03;5028371;28;20203;-67
2023/01/20 05:56:43;;;;;;;4.22;2.50;;;;;;;10.08;90.56;93819.28;5029069;28;20213;-67
2023/01/20 05:59:10;;;;;;;4.78;2.75;;;;;;;10.08;90.13;93800.72;5028430;28;20217;-67
2023/01/20 06:01:37;;;;;;;3.20;2.90;;;;;;;10.08;90.87;93781.22;5028672;28;20219;-66
2023/01/20 06:04:05;;;;;;;3.88;3.40;;;;;;;9.93;91.09;93817.53;5028293;28;20896;-69
2023/01/20 06:06:32;;;;;;;3.83;3.03;;;;;;;9.83;91.23;93821.44;5028225;28;20283;-66
2023/01/20 06:08:59;;;;;;;3.45;2.85;;;;;;;9.95;91.39;93810.66;5029044;28;20299;-67
2023/01/20 06:11:25;;;;;;;2.90;2.63;;;;;;;10.09;90.35;93831.09;5029195;28;20210;-67
2023/01/20 06:13:52;;;;;;;2.58;2.38;;;;;;;9.90;89.94;93828.66;5028884;28;20284;-67
2023/01/20 06:16:20;;;;;;;5.57;3.50;;;;;;;9.84;90.81;93810.41;5028757;28;20199;-68
2023/01/20 06:18:46;;;;;;;3.30;3.10;;;;;;;9.74;91.80;93816.81;5028682;28;20619;-68
2023/01/20 06:21:14;;;;;;;6.50;4.80;;;;;;;9.35;93.99;93833.09;5027800;28;20206;-67
2023/01/20 06:23:41;;;;;;;6.53;4.97;;;;;;;9.28;95.47;93836.81;5029108;28;20206;-67
2023/01/20 06:26:12;;;;;;;5.68;5.18;;;;;;;9.17;95.49;93806.09;5028208;28;20257;-67
2023/01/20 06:28:39;;;;;;;4.85;4.30;;;;;;;9.26;96.28;93830.19;5028654;28;20210;-67
2023/01/20 06:31:07;;;;;;;5.78;4.53;;;;;;;9.58;95.09;93836.25;5028085;28;20242;-66
2023/01/20 06:33:34;;;;;;;5.25;4.50;;;;;;;9.52;94.73;93812.00;5028354;28;20230;-68
2023/01/20 06:36:02;;;;;;;6.60;5.93;;;;;;;9.52;94.35;93812.81;5028208;28;20260;-67
2023/01/20 06:38:33;;;;;;;7.55;5.45;;;;;;;9.51;95.43;93820.50;5028276;28;20214;-65
2023/01/20 06:41:01;;;;;;;4.78;4.32;;;;;;;9.60;94.79;93825.13;5028880;28;20213;-67
2023/01/20 06:43:29;;;;;;;6.90;6.30;;;;;;;9.57;93.71;93820.19;5029026;28;20210;-68
2023/01/20 06:45:59;;;;;;;5.40;4.85;;;;;;;9.58;94.06;93821.84;5028128;28;20203;-67
2023/01/20 06:48:26;;;;;;;6.57;4.15;;;;;;;9.44;94.42;93809.81;5028275;28;20289;-68
2023/01/20 06:50:54;;;;;;;5.80;4.85;;;;;;;9.35;95.04;93797.63;5027719;28;20211;-70
2023/01/20 06:53:21;;;;;;;4.60;4.20;;;;;;;9.27;96.29;93802.22;5028569;28;20288;-67
2023/01/20 06:55:56;;;;;;;7.10;3.90;;;;;;;9.11;96.21;93816.53;5028979;28;20206;-67
2023/01/20 06:58:24;;;;;;;5.88;3.75;;;;;;;9.06;96.73;93809.16;5029952;28;20241;-67
2023/01/20 07:00:51;;;;;;;3.60;3.28;;;;;;;9.12;96.70;93808.06;5031882;28;20357;-67
2023/01/20 07:03:18;;;;;;;5.75;3.65;;;;;;;9.07;96.87;93809.97;5031931;28;20294;-67
2023/01/20 07:05:44;;;;;;;4.63;3.60;;;;;;;9.09;96.79;93818.34;5031720;28;20203;-67
2023/01/20 07:08:11;;;;;;;3.55;3.20;;;;;;;9.18;95.46;93813.63;5031890;28;20214;-68
2023/01/20 07:10:38;;;;;;;4.07;3.78;;;;;;;9.26;95.04;93800.59;5032003;28;20207;-66
2023/01/20 07:13:06;;;;;;;5.68;3.65;;;;;;;9.39;94.68;93806.72;5032346;28;20223;-66
2023/01/20 07:15:33;;;;;;;5.22;4.72;;;;;;;9.31;95.36;93803.72;5032192;28;20272;-67
2023/01/20 07:17:59;;;;;;;7.53;4.68;;;;;;;9.45;94.44;93808.09;5031308;28;20426;-66
2023/01/20 07:20:26;;;;;;;5.68;5.18;;;;;;;9.55;93.76;93810.13;5031945;28;20306;-68
2023/01/20 07:22:53;;;;;;;6.15;5.55;;;;;;;9.28;94.13;93797.97;5031291;28;20645;-68
2023/01/20 07:25:20;;;;;;;6.15;5.68;;;;;;;9.30;95.30;93806.34;5030861;28;20306;-66
2023/01/20 07:27:46;;;;;;;13.68;5.03;;;;;;;9.23;95.57;93800.72;5031084;28;20705;-66
2023/01/20 07:30:15;;;;;;;7.03;4.63;;;;;;;9.30;95.17;93812.22;5031536;28;20246;-67
2023/01/20 07:32:42;;;;;;;6.35;5.70;;;;;;;9.32;94.48;93800.31;5031184;28;20245;-67
2023/01/20 07:35:09;;;;;;;7.30;4.60;;;;;;;9.31;94.04;93798.66;5031186;28;20298;-67
2023/01/20 07:37:36;;;;;;;6.85;5.57;;;;;;;9.35;94.30;93797.63;5030861;28;20226;-68
2023/01/20 07:40:02;;;;;;;6.78;5.30;;;;;;;9.49;93.82;93787.59;5031448;28;20219;-65
2023/01/20 07:42:29;;;;;;;8.15;4.72;;;;;;;9.41;94.16;93778.72;5031684;28;20230;-66
2023/01/20 07:44:56;;;;;;;5.18;4.72;;;;;;;9.40;93.93;93780.44;5031378;28;22111;-67
2023/01/20 07:47:24;;;;;;;5.45;4.05;;;;;;;9.34;93.78;93779.94;5030499;28;20786;-69
2023/01/20 07:49:50;;;;;;;8.20;5.68;;;;;;;9.31;93.38;93782.63;5030461;28;20270;-69
2023/01/20 07:52:17;;;;;;;5.47;4.53;;;;;;;9.19;94.13;93768.81;5031301;28;20297;-67
2023/01/20 07:54:44;;;;;;;7.57;4.40;;;;;;;9.28;94.28;93782.78;5032145;28;20698;-68
2023/01/20 07:57:11;;;;;;;6.53;5.35;;;;;;;9.22;94.43;93773.75;5031802;28;20298;-67
2023/01/20 07:59:38;;;;;;;5.60;5.07;;;;;;;9.27;93.95;93766.75;5030546;28;20238;-65
2023/01/20 08:02:04;;;;;;;4.53;4.13;;;;;;;9.17;94.44;93773.16;5030448;28;20292;-64
2023/01/20 08:04:33;;;;;;;4.70;4.30;;;;;;;9.15;94.32;93782.56;5031199;28;20258;-66
2023/01/20 08:07:00;;;;;;;5.00;4.50;;;;;;;9.11;95.18;93778.53;5031162;28;20227;-67
2023/01/20 08:09:27;;;;;;;7.00;5.10;;;;;;;9.13;95.61;93774.22;5029444;28;20231;-69
2023/01/20 08:11:53;;;;;;;4.88;4.47;;;;;;;9.13;94.24;93764.06;5030395;28;20779;-67
2023/01/20 08:14:20;;;;;;;4.75;4.35;;;;;;;9.07;94.09;93739.84;5030362;28;20761;-66
2023/01/20 08:16:47;;;;;;;4.82;4.35;;;;;;;9.21;93.44;93731.56;5031196;28;20208;-66
2023/01/20 08:19:13;;;;;;;2.65;2.22;;;;;;;9.08;90.33;93750.81;5030272;28;20214;-67
2023/01/20 08:21:41;;;;;;;4.25;3.38;;;;;;;9.07;90.83;93741.56;5029569;28;20296;-67
2023/01/20 08:24:10;;;;;;;4.20;3.90;;;;;;;9.24;90.88;93755.94;5031216;28;20230;-67
2023/01/20 08:26:37;;;;;;;5.78;4.10;;;;;;;9.29;90.79;93764.97;5031153;28;20298;-67
2023/01/20 08:29:06;;;;;;;6.63;4.00;;;;;;;9.26;91.25;93761.75;5029370;28;20235;-70
2023/01/20 08:31:33;;;;;;;4.22;3.83;;;;;;;9.21;91.51;93764.50;5030861;28;20267;-68
2023/01/20 08:33:59;;;;;;;4.65;3.80;;;;;;;9.20;91.33;93755.25;5030633;28;20292;-68
2023/01/20 08:36:29;;;;;;;4.70;3.17;;;;;;;9.27;92.11;93756.59;5030702;28;20272;-68
2023/01/20 08:38:58;;;;;;;5.57;4.13;;;;;;;9.29;92.36;93739.59;5030215;28;20823;-66
2023/01/20 08:41:28;;;;;;;4.32;3.92;;;;;;;9.34;92.92;93721.63;5029260;28;20245;-68
2023/01/20 08:43:55;;;;;;;3.95;3.70;;;;;;;9.40;92.26;93714.53;5029555;28;20210;-67
2023/01/20 08:46:22;;;;;;;5.57;4.40;;;;;;;9.40;91.77;93693.44;5030806;28;20257;-66
2023/01/20 08:48:49;;;;;;;7.40;5.35;;;;;;;9.53;91.64;93707.13;5029779;28;20820;-65
2023/01/20 08:51:18;;;;;;;6.60;4.95;;;;;;;9.65;91.14;93705.69;5029618;28;20514;-67
2023/01/20 08:53:44;;;;;;;7.72;5.07;;;;;;;9.84;90.50;93698.75;5029852;28;20693;-66
2023/01/20 08:56:13;;;;;;;5.40;4.88;;;;;;;9.93;89.36;93695.72;5029582;28;20690;-66
2023/01/20 08:58:40;;;;;;;7.68;5.95;;;;;;;9.95;89.57;93698.19;5029472;28;20683;-69
2023/01/20 09:01:11;;;;;;;6.53;5.47;;;;;;;9.71;89.11;93670.66;5028854;28;20245;-67
2023/01/20 09:03:39;;;;;;;5.57;5.07;;;;;;;9.95;89.45;93688.03;5030339;28;21896;-66
2023/01/20 09:06:07;;;;;;;9.10;5.85;;;;;;;10.04;89.38;93698.53;5029351;28;20210;-66
2023/01/20 09:08:34;;;;;;;6.72;4.50;;;;;;;10.00;88.99;93683.53;5030024;28;20292;-67
2023/01/20 09:11:05;;;;;;;7.65;3.65;;;;;;;9.97;88.74;93686.22;5030028;28;20331;-67
2023/01/20 09:13:34;;;;;;;6.05;4.18;;;;;;;10.11;88.91;93689.69;5029752;28;20304;-68
2023/01/20 09:16:02;;;;;;;4.85;3.80;;;;;;;10.08;87.34;93679.69;5030073;28;20206;-66
2023/01/20 09:18:30;;;;;;;2.22;2.08;;;;;;;10.17;86.34;93691.88;5029773;28;20210;-67
2023/01/20 09:20:57;;;;;;;4.32;2.95;;;;;;;10.18;85.85;93706.22;5028390;28;20276;-68
2023/01/20 09:23:24;;;;;;;3.00;2.70;;;;;;;10.28;85.73;93698.13;5029638;28;20232;-67
2023/01/20 09:25:51;;;;;;;3.58;3.00;;;;;;;10.33;85.11;93693.63;5028559;28;20210;-66
2023/01/20 09:28:17;;;;;;;4.97;2.72;;;;;;;10.44;84.80;93687.06;5029617;28;20207;-66
2023/01/20 09:30:46;;;;;;;5.65;3.80;;;;;;;10.64;83.84;93678.31;5029276;28;20246;-67
2023/01/20 09:33:13;;;;;;;2.90;2.70;;;;;;;10.78;82.50;93677.56;5028576;28;20734;-67
2023/01/20 09:35:40;;;;;;;1.52;1.42;;;;;;;10.95;80.72;93672.34;5029328;28;20576;-67
2023/01/20 09:43:58;;;;;;;2.38;2.17;;;;;;;11.33;78.69;93682.84;5029416;28;20253;-67
2023/01/20 09:46:35;;;;;;;1.92;1.83;;;;;;;11.07;78.16;93692.00;5028630;28;20724;-66
2023/01/20 09:55:01;;;;;;;1.40;1.35;;;;;;;10.66;79.58;93709.53;5027258;28;20222;-67
2023/01/20 09:57:33;;;;;;;1.27;1.17;;;;;;;10.37;80.36;93679.88;5029431;28;20578;-67
2023/01/20 10:00:06;;;;;;;1.90;1.65;;;;;;;10.51;80.93;93677.38;5027959;28;20203;-66
2023/01/20 10:02:36;;;;;;;1.95;1.85;;;;;;;10.65;80.97;93666.44;5027455;28;20207;-67
2023/01/20 10:05:11;;;;;;;4.35;1.88;;;;;;;11.06;80.45;93674.28;5028516;28;20224;-67
2023/01/20 10:07:45;;;;;;;1.75;1.65;;;;;;;11.62;78.96;93673.50;5026199;28;20863;-68
2023/01/20 10:10:16;;;;;;;3.10;2.10;;;;;;;12.12;76.81;93662.84;5027303;28;20202;-66
2023/01/20 10:12:47;;;;;;;1.45;1.40;;;;;;;12.33;75.80;93673.44;5027478;28;20198;-66
2023/01/20 10:15:19;;;;;;;3.08;2.03;;;;;;;12.55;75.19;93675.44;5026359;28;20227;-67
2023/01/20 10:17:51;;;;;;;1.77;1.67;;;;;;;12.75;73.74;93652.03;5027491;28;20217;-68
2023/01/20 10:20:27;;;;;;;1.80;1.67;;;;;;;13.21;74.00;93623.56;5027704;28;20760;-67
2023/01/20 10:23:01;;;;;;;1.52;1.42;;;;;;;13.80;69.92;93611.06;5027419;28;20845;-66
2023/01/20 10:25:34;;;;;;;1.40;1.30;;;;;;;14.03;69.47;93617.94;5027512;28;20210;-66
2023/01/20 10:28:06;;;;;;;1.60;1.27;;;;;;;13.99;68.64;93619.06;5027171;28;20211;-68
2023/01/20 10:30:36;;;;;;;1.17;1.10;;;;;;;13.86;66.32;93631.84;5028274;28;20191;-67
2023/01/20 10:33:10;;;;;;;1.30;1.20;;;;;;;13.67;66.83;93634.03;5030140;28;20207;-68
2023/01/20 10:35:39;;;;;;;1.50;1.40;;;;;;;13.53;68.39;93634.16;5031076;28;20207;-66
2023/01/20 10:38:08;;;;;;;2.55;1.60;;;;;;;13.47;69.17;93604.78;5031839;28;20257;-65
2023/01/20 10:40:42;;;;;;;1.60;1.20;;;;;;;13.70;69.34;93620.25;5033401;28;20959;-65
2023/01/20 10:43:12;;;;;;;1.48;1.40;;;;;;;13.84;69.77;93638.81;5032217;28;21666;-65
2023/01/20 10:46:00;;;;;;;3.03;1.45;;;;;;;13.71;69.65;93627.00;5032277;28;20214;-66
2023/01/20 10:48:47;;;;;;;3.55;2.72;;;;;;;13.73;70.25;93614.94;5030466;28;20839;-68
2023/01/20 10:51:22;;;;;;;2.50;2.25;;;;;;;13.66;70.17;93618.81;5032068;28;20203;-66
2023/01/20 10:54:00;;;;;;;3.78;2.35;;;;;;;13.50;71.61;93622.44;5032189;28;20237;-69
2023/01/20 10:56:41;;;;;;;1.42;1.33;;;;;;;13.36;72.05;93632.75;5031423;28;20218;-66
2023/01/20 10:59:13;;;;;;;1.83;1.70;;;;;;;13.16;71.72;93608.56;5031804;28;20203;-66
2023/01/20 11:01:41;;;;;;;1.80;1.70;;;;;;;13.08;72.69;93617.63;5032554;28;20217;-67
2023/01/20 11:04:17;;;;;;;8.50;2.53;;;;;;;12.94;73.27;93621.06;5031324;28;20870;-69
2023/01/20 11:06:44;;;;;;;6.25;2.35;;;;;;;12.81;74.35;93636.38;5032164;28;20213;-66
2023/01/20 11:09:21;;;;;;;2.45;1.92;;;;;;;12.59;75.18;93610.63;5032653;28;21147;-66
2023/01/20 11:11:48;;;;;;;2.45;2.35;;;;;;;12.56;75.60;93631.22;5032005;28;20210;-69
2023/01/20 11:14:15;;;;;;;2.53;1.80;;;;;;;12.41;76.28;93616.88;5031730;28;20227;-65
2023/01/20 11:16:45;;;;;;;4.63;2.35;;;;;;;12.39;76.31;93626.34;5032787;28;20222;-65
2023/01/20 11:19:13;;;;;;;3.25;2.10;;;;;;;12.30;77.13;93639.69;5032061;28;20607;-68
2023/01/20 11:21:40;;;;;;;3.03;2.72;;;;;;;12.17;79.07;93644.72;5032489;28;20211;-67
2023/01/20 11:24:33;;;;;;;3.30;2.55;;;;;;;12.13;80.07;93646.63;5031660;28;20209;-66
2023/01/20 11:27:05;;;;;;;3.80;3.20;;;;;;;12.05;80.92;93642.94;5032049;28;20235;-66
2023/01/20 11:29:40;;;;;;;3.80;3.40;;;;;;;11.94;82.06;93643.59;5031518;28;20203;-67
2023/01/20 11:32:24;;;;;;;3.95;3.17;;;;;;;11.81;82.45;93635.91;5031322;28;20621;-65
2023/01/20 11:34:54;;;;;;;3.63;2.63;;;;;;;11.66;80.60;93646.13;5030476;28;20741;-65
2023/01/20 11:37:24;;;;;;;2.20;1.95;;;;;;;11.49;78.31;93627.63;5031833;28;20218;-65
2023/01/20 11:40:01;;;;;;;2.25;1.67;;;;;;;11.21;78.31;93607.28;5031496;28;20334;-67
2023/01/20 11:42:30;;;;;;;1.15;1.05;;;;;;;11.13;78.00;93650.16;5031780;28;20841;-66
2023/01/20 11:45:00;;;;;;;0.85;0.70;;;;;;;10.96;78.52;93660.44;5031400;28;20207;-68
2023/01/20 11:47:29;;;;;;;1.13;1.02;;;;;;;10.91;77.08;93656.44;5031159;28;20202;-66
2023/01/20 11:50:19;;;;;;;1.92;1.67;;;;;;;10.77;77.65;93674.22;5031665;28;20210;-65
2023/01/20 11:52:46;;;;;;;2.30;1.98;;;;;;;10.69;78.10;93666.19;5031415;28;20207;-67
2023/01/20 11:55:15;;;;;;;2.00;1.02;;;;;;;10.52;78.85;93666.31;5030349;28;20760;-67
2023/01/20 11:57:45;;;;;;;1.38;0.73;;;;;;;10.62;77.24;93659.03;5031200;28;20203;-65
2023/01/20 12:00:31;;;;;;;1.75;0.60;;;;;;;10.39;77.43;93675.53;5030683;28;20288;-68
2023/01/20 12:03:00;;;;;;;2.58;0.90;;;;;;;10.26;77.98;93666.94;5031640;28;20203;-65